sensor_id;sensor_type;location;lat;lon;timestamp;pressure;altitude;pressure_sealevel;temperature;humidity
20115;BME280;10218;42.874;25.320;2022-11-20T00:01:24;96633.81;;;17.45;100.00
20115;BME280;10218;42.874;25.320;2022-11-20T00:03:54;96637.34;;;17.27;100.00
20115;BME280;10218;42.874;25.320;2022-11-20T00:06:22;96636.00;;;17.36;100.00
20115;BME280;10218;42.874;25.320;2022-11-20T00:08:50;96625.16;;;17.25;100.00
20115;BME280;10218;42.874;25.320;2022-11-20T00:11:19;96622.19;;;17.44;100.00
20115;BME280;10218;42.874;25.320;2022-11-20T00:13:50;96631.25;;;17.50;100.00
20115;BME280;10218;42.874;25.320;2022-11-20T00:16:20;96633.56;;;17.65;100.00
20115;BME280;10218;42.874;25.320;2022-11-20T00:18:49;96624.28;;;17.42;100.00
20115;BME280;10218;42.874;25.320;2022-11-20T00:21:23;96615.72;;;17.45;100.00
20115;BME280;10218;42.874;25.320;2022-11-20T00:23:52;96618.34;;;17.52;100.00
20115;BME280;10218;42.874;25.320;2022-11-20T00:26:22;96614.75;;;17.40;100.00
20115;BME280;10218;42.874;25.320;2022-11-20T00:28:52;96616.31;;;17.47;100.00
20115;BME280;10218;42.874;25.320;2022-11-20T00:31:20;96602.09;;;17.40;100.00
20115;BME280;10218;42.874;25.320;2022-11-20T00:33:47;96595.88;;;17.40;100.00
20115;BME280;10218;42.874;25.320;2022-11-20T00:36:19;96606.25;;;17.54;100.00
20115;BME280;10218;42.874;25.320;2022-11-20T00:38:51;96610.38;;;17.57;100.00
20115;BME280;10218;42.874;25.320;2022-11-20T00:41:19;96612.00;;;17.58;100.00
20115;BME280;10218;42.874;25.320;2022-11-20T00:43:46;96605.66;;;17.52;100.00
20115;BME280;10218;42.874;25.320;2022-11-20T00:46:16;96604.47;;;17.48;100.00
20115;BME280;10218;42.874;25.320;2022-11-20T00:48:45;96591.34;;;17.52;100.00
20115;BME280;10218;42.874;25.320;2022-11-20T00:51:14;96594.56;;;17.42;100.00
20115;BME280;10218;42.874;25.320;2022-11-20T00:53:42;96593.16;;;17.40;100.00
20115;BME280;10218;42.874;25.320;2022-11-20T00:56:11;96589.62;;;17.39;100.00
20115;BME280;10218;42.874;25.320;2022-11-20T00:58:41;96607.63;;;17.45;100.00
20115;BME280;10218;42.874;25.320;2022-11-20T01:01:12;96603.28;;;17.44;100.00
20115;BME280;10218;42.874;25.320;2022-11-20T01:03:42;96616.91;;;17.49;100.00
20115;BME280;10218;42.874;25.320;2022-11-20T01:06:13;96619.41;;;17.33;100.00
20115;BME280;10218;42.874;25.320;2022-11-20T01:08:41;96624.81;;;17.51;100.00
20115;BME280;10218;42.874;25.320;2022-11-20T01:11:12;96618.53;;;17.69;100.00
20115;BME280;10218;42.874;25.320;2022-11-20T01:13:41;96615.25;;;17.48;100.00
20115;BME280;10218;42.874;25.320;2022-11-20T01:16:12;96604.97;;;17.57;100.00
20115;BME280;10218;42.874;25.320;2022-11-20T01:18:42;96567.62;;;17.54;100.00
20115;BME280;10218;42.874;25.320;2022-11-20T01:21:12;96594.03;;;17.82;100.00
20115;BME280;10218;42.874;25.320;2022-11-20T01:23:42;96584.28;;;17.81;100.00
20115;BME280;10218;42.874;25.320;2022-11-20T01:26:15;96574.19;;;17.76;100.00
20115;BME280;10218;42.874;25.320;2022-11-20T01:28:43;96557.09;;;17.64;100.00
20115;BME280;10218;42.874;25.320;2022-11-20T01:31:19;96539.50;;;17.62;100.00
20115;BME280;10218;42.874;25.320;2022-11-20T01:33:50;96537.69;;;17.56;100.00
20115;BME280;10218;42.874;25.320;2022-11-20T01:36:20;96531.75;;;17.65;100.00
20115;BME280;10218;42.874;25.320;2022-11-20T01:38:49;96528.84;;;17.90;100.00
20115;BME280;10218;42.874;25.320;2022-11-20T01:41:17;96517.91;;;17.85;100.00
20115;BME280;10218;42.874;25.320;2022-11-20T01:44:04;96521.22;;;17.87;100.00
20115;BME280;10218;42.874;25.320;2022-11-20T01:46:35;96538.59;;;17.79;100.00
20115;BME280;10218;42.874;25.320;2022-11-20T01:49:11;96533.53;;;17.83;100.00
20115;BME280;10218;42.874;25.320;2022-11-20T01:51:54;96532.47;;;17.72;100.00
20115;BME280;10218;42.874;25.320;2022-11-20T01:54:43;96544.97;;;17.55;100.00
20115;BME280;10218;42.874;25.320;2022-11-20T01:57:13;96555.19;;;17.23;100.00
20115;BME280;10218;42.874;25.320;2022-11-20T01:59:49;96547.69;;;17.25;100.00
20115;BME280;10218;42.874;25.320;2022-11-20T02:02:20;96567.12;;;17.16;100.00
20115;BME280;10218;42.874;25.320;2022-11-20T02:04:50;96567.00;;;17.22;100.00
20115;BME280;10218;42.874;25.320;2022-11-20T02:07:20;96553.84;;;17.62;100.00
20115;BME280;10218;42.874;25.320;2022-11-20T02:09:48;96550.00;;;17.81;100.00
20115;BME280;10218;42.874;25.320;2022-11-20T02:12:15;96567.81;;;17.71;100.00
20115;BME280;10218;42.874;25.320;2022-11-20T02:15:02;96550.31;;;17.43;100.00
20115;BME280;10218;42.874;25.320;2022-11-20T02:17:29;96551.94;;;17.63;100.00
20115;BME280;10218;42.874;25.320;2022-11-20T02:19:57;96551.19;;;17.56;100.00
20115;BME280;10218;42.874;25.320;2022-11-20T02:22:31;96570.13;;;17.97;100.00
20115;BME280;10218;42.874;25.320;2022-11-20T02:25:02;96580.28;;;17.72;100.00
20115;BME280;10218;42.874;25.320;2022-11-20T02:27:31;96582.72;;;17.43;100.00
20115;BME280;10218;42.874;25.320;2022-11-20T02:30:02;96578.91;;;17.33;100.00
20115;BME280;10218;42.874;25.320;2022-11-20T02:32:32;96579.78;;;17.15;100.00
20115;BME280;10218;42.874;25.320;2022-11-20T02:35:08;96569.00;;;17.15;100.00
20115;BME280;10218;42.874;25.320;2022-11-20T02:37:37;96563.87;;;17.55;100.00
20115;BME280;10218;42.874;25.320;2022-11-20T02:40:07;96567.97;;;17.46;100.00
20115;BME280;10218;42.874;25.320;2022-11-20T02:42:36;96549.78;;;17.23;100.00
20115;BME280;10218;42.874;25.320;2022-11-20T02:45:07;96544.50;;;17.58;100.00
20115;BME280;10218;42.874;25.320;2022-11-20T02:47:34;96531.53;;;17.67;100.00
20115;BME280;10218;42.874;25.320;2022-11-20T02:50:02;96534.22;;;17.37;100.00
20115;BME280;10218;42.874;25.320;2022-11-20T02:52:30;96526.34;;;17.35;100.00
20115;BME280;10218;42.874;25.320;2022-11-20T02:54:58;96526.09;;;17.25;100.00
20115;BME280;10218;42.874;25.320;2022-11-20T02:57:25;96526.91;;;17.26;100.00
20115;BME280;10218;42.874;25.320;2022-11-20T02:59:53;96531.28;;;17.38;100.00
20115;BME280;10218;42.874;25.320;2022-11-20T03:02:21;96524.22;;;17.26;100.00
20115;BME280;10218;42.874;25.320;2022-11-20T03:04:48;96511.91;;;17.30;100.00
20115;BME280;10218;42.874;25.320;2022-11-20T03:07:15;96529.75;;;17.42;100.00
20115;BME280;10218;42.874;25.320;2022-11-20T03:09:44;96517.63;;;17.22;100.00
20115;BME280;10218;42.874;25.320;2022-11-20T03:12:11;96515.84;;;17.16;100.00
20115;BME280;10218;42.874;25.320;2022-11-20T03:14:38;96514.03;;;17.39;100.00
20115;BME280;10218;42.874;25.320;2022-11-20T03:17:06;96506.53;;;17.41;100.00
20115;BME280;10218;42.874;25.320;2022-11-20T03:19:33;96504.09;;;17.51;100.00
20115;BME280;10218;42.874;25.320;2022-11-20T03:22:01;96517.22;;;17.36;100.00
20115;BME280;10218;42.874;25.320;2022-11-20T03:24:29;96520.66;;;17.55;100.00
20115;BME280;10218;42.874;25.320;2022-11-20T03:26:57;96521.12;;;17.52;100.00
20115;BME280;10218;42.874;25.320;2022-11-20T03:29:24;96519.00;;;17.54;100.00
20115;BME280;10218;42.874;25.320;2022-11-20T03:31:52;96513.22;;;17.39;100.00
20115;BME280;10218;42.874;25.320;2022-11-20T03:34:19;96519.91;;;17.48;100.00
20115;BME280;10218;42.874;25.320;2022-11-20T03:36:45;96512.50;;;17.43;100.00
20115;BME280;10218;42.874;25.320;2022-11-20T03:39:13;96503.37;;;17.44;100.00
20115;BME280;10218;42.874;25.320;2022-11-20T03:41:41;96489.50;;;17.52;100.00
20115;BME280;10218;42.874;25.320;2022-11-20T03:44:10;96494.28;;;17.69;100.00
20115;BME280;10218;42.874;25.320;2022-11-20T03:46:38;96510.00;;;17.60;100.00
20115;BME280;10218;42.874;25.320;2022-11-20T03:49:05;96508.41;;;17.82;100.00
20115;BME280;10218;42.874;25.320;2022-11-20T03:51:34;96515.19;;;17.73;100.00
20115;BME280;10218;42.874;25.320;2022-11-20T03:54:06;96523.50;;;17.60;100.00
20115;BME280;10218;42.874;25.320;2022-11-20T03:56:36;96528.09;;;17.60;100.00
20115;BME280;10218;42.874;25.320;2022-11-20T03:59:05;96522.38;;;17.79;100.00
20115;BME280;10218;42.874;25.320;2022-11-20T04:01:35;96526.03;;;17.85;100.00
20115;BME280;10218;42.874;25.320;2022-11-20T04:04:02;96521.78;;;17.66;100.00
20115;BME280;10218;42.874;25.320;2022-11-20T04:06:34;96526.28;;;17.95;100.00
20115;BME280;10218;42.874;25.320;2022-11-20T04:09:03;96535.81;;;17.98;100.00
20115;BME280;10218;42.874;25.320;2022-11-20T04:11:32;96535.31;;;17.89;100.00
20115;BME280;10218;42.874;25.320;2022-11-20T04:14:05;96540.25;;;18.04;100.00
20115;BME280;10218;42.874;25.320;2022-11-20T04:16:35;96540.81;;;17.71;100.00
20115;BME280;10218;42.874;25.320;2022-11-20T04:19:04;96543.31;;;17.54;100.00
20115;BME280;10218;42.874;25.320;2022-11-20T04:21:31;96541.84;;;17.70;100.00
20115;BME280;10218;42.874;25.320;2022-11-20T04:23:59;96534.38;;;17.53;100.00
20115;BME280;10218;42.874;25.320;2022-11-20T04:26:29;96531.22;;;17.15;100.00
20115;BME280;10218;42.874;25.320;2022-11-20T04:28:57;96544.28;;;17.00;100.00
20115;BME280;10218;42.874;25.320;2022-11-20T04:31:28;96533.50;;;16.82;100.00
20115;BME280;10218;42.874;25.320;2022-11-20T04:33:59;96538.75;;;16.95;100.00
20115;BME280;10218;42.874;25.320;2022-11-20T04:36:28;96528.38;;;17.10;100.00
20115;BME280;10218;42.874;25.320;2022-11-20T04:38:58;96535.09;;;17.19;100.00
20115;BME280;10218;42.874;25.320;2022-11-20T04:41:29;96542.44;;;17.12;100.00
20115;BME280;10218;42.874;25.320;2022-11-20T04:43:59;96533.41;;;17.36;100.00
20115;BME280;10218;42.874;25.320;2022-11-20T04:46:35;96517.31;;;17.00;100.00
20115;BME280;10218;42.874;25.320;2022-11-20T04:49:03;96513.56;;;17.01;100.00
20115;BME280;10218;42.874;25.320;2022-11-20T04:51:31;96496.63;;;16.94;100.00
20115;BME280;10218;42.874;25.320;2022-11-20T04:53:59;96494.41;;;17.32;100.00
20115;BME280;10218;42.874;25.320;2022-11-20T04:56:27;96488.34;;;17.37;100.00
20115;BME280;10218;42.874;25.320;2022-11-20T04:58:54;96489.25;;;17.42;100.00
20115;BME280;10218;42.874;25.320;2022-11-20T05:01:23;96484.72;;;17.54;100.00
20115;BME280;10218;42.874;25.320;2022-11-20T05:03:51;96484.50;;;17.56;100.00
20115;BME280;10218;42.874;25.320;2022-11-20T05:06:20;96488.03;;;17.57;100.00
20115;BME280;10218;42.874;25.320;2022-11-20T05:08:48;96483.66;;;17.56;100.00
20115;BME280;10218;42.874;25.320;2022-11-20T05:11:19;96493.72;;;17.67;100.00
20115;BME280;10218;42.874;25.320;2022-11-20T05:13:47;96487.34;;;17.73;100.00
20115;BME280;10218;42.874;25.320;2022-11-20T05:16:16;96485.94;;;17.70;100.00
20115;BME280;10218;42.874;25.320;2022-11-20T05:18:44;96471.81;;;17.57;100.00
20115;BME280;10218;42.874;25.320;2022-11-20T05:21:12;96487.94;;;17.63;100.00
20115;BME280;10218;42.874;25.320;2022-11-20T05:23:40;96493.84;;;17.72;100.00
20115;BME280;10218;42.874;25.320;2022-11-20T05:26:13;96491.00;;;17.67;100.00
20115;BME280;10218;42.874;25.320;2022-11-20T05:28:41;96514.38;;;17.61;100.00
20115;BME280;10218;42.874;25.320;2022-11-20T05:31:12;96501.44;;;17.63;100.00
20115;BME280;10218;42.874;25.320;2022-11-20T05:33:41;96484.53;;;17.68;100.00
20115;BME280;10218;42.874;25.320;2022-11-20T05:36:10;96498.53;;;17.76;100.00
20115;BME280;10218;42.874;25.320;2022-11-20T05:38:38;96495.81;;;17.88;100.00
20115;BME280;10218;42.874;25.320;2022-11-20T05:41:14;96501.22;;;17.88;100.00
20115;BME280;10218;42.874;25.320;2022-11-20T05:43:44;96494.75;;;17.66;100.00
20115;BME280;10218;42.874;25.320;2022-11-20T05:46:14;96497.47;;;17.77;100.00
20115;BME280;10218;42.874;25.320;2022-11-20T05:48:42;96507.09;;;17.73;100.00
20115;BME280;10218;42.874;25.320;2022-11-20T05:51:12;96515.19;;;17.73;100.00
20115;BME280;10218;42.874;25.320;2022-11-20T05:53:40;96501.94;;;17.72;100.00
20115;BME280;10218;42.874;25.320;2022-11-20T05:56:19;96510.37;;;17.75;100.00
20115;BME280;10218;42.874;25.320;2022-11-20T05:58:47;96518.72;;;17.74;100.00
20115;BME280;10218;42.874;25.320;2022-11-20T06:01:22;96527.66;;;17.74;100.00
20115;BME280;10218;42.874;25.320;2022-11-20T06:03:50;96525.28;;;17.78;100.00
20115;BME280;10218;42.874;25.320;2022-11-20T06:06:18;96540.72;;;17.77;100.00
20115;BME280;10218;42.874;25.320;2022-11-20T06:08:46;96536.84;;;17.85;100.00
20115;BME280;10218;42.874;25.320;2022-11-20T06:11:15;96535.44;;;18.06;100.00
20115;BME280;10218;42.874;25.320;2022-11-20T06:13:43;96542.59;;;17.88;100.00
20115;BME280;10218;42.874;25.320;2022-11-20T06:16:11;96540.97;;;18.11;100.00
20115;BME280;10218;42.874;25.320;2022-11-20T06:18:42;96543.66;;;17.99;100.00
20115;BME280;10218;42.874;25.320;2022-11-20T06:21:16;96545.69;;;18.38;100.00
20115;BME280;10218;42.874;25.320;2022-11-20T06:23:44;96539.72;;;19.56;100.00
20115;BME280;10218;42.874;25.320;2022-11-20T06:26:17;96551.28;;;21.77;100.00
20115;BME280;10218;42.874;25.320;2022-11-20T06:28:45;96556.84;;;23.81;78.91
20115;BME280;10218;42.874;25.320;2022-11-20T06:31:16;96558.78;;;24.01;76.26
20115;BME280;10218;42.874;25.320;2022-11-20T06:33:44;96559.22;;;23.57;75.44
20115;BME280;10218;42.874;25.320;2022-11-20T06:36:14;96565.22;;;22.92;79.50
20115;BME280;10218;42.874;25.320;2022-11-20T06:38:42;96557.31;;;23.53;78.76
20115;BME280;10218;42.874;25.320;2022-11-20T06:41:19;96556.47;;;22.80;82.41
20115;BME280;10218;42.874;25.320;2022-11-20T06:43:47;96568.28;;;23.88;72.71
20115;BME280;10218;42.874;25.320;2022-11-20T06:46:15;96577.75;;;22.14;88.99
20115;BME280;10218;42.874;25.320;2022-11-20T06:48:47;96566.19;;;21.75;95.43
20115;BME280;10218;42.874;25.320;2022-11-20T06:51:14;96575.00;;;21.87;96.51
20115;BME280;10218;42.874;25.320;2022-11-20T06:53:42;96586.87;;;22.03;96.30
20115;BME280;10218;42.874;25.320;2022-11-20T06:56:10;96586.63;;;23.20;75.80
20115;BME280;10218;42.874;25.320;2022-11-20T06:58:38;96580.81;;;23.07;81.81
20115;BME280;10218;42.874;25.320;2022-11-20T07:01:12;96604.91;;;22.78;83.39
20115;BME280;10218;42.874;25.320;2022-11-20T07:03:40;96621.03;;;24.19;70.46
20115;BME280;10218;42.874;25.320;2022-11-20T07:06:08;96617.41;;;23.93;72.10
20115;BME280;10218;42.874;25.320;2022-11-20T07:08:36;96628.16;;;22.90;80.21
20115;BME280;10218;42.874;25.320;2022-11-20T07:11:05;96612.88;;;22.52;86.78
20115;BME280;10218;42.874;25.320;2022-11-20T07:13:33;96624.69;;;21.56;100.00
20115;BME280;10218;42.874;25.320;2022-11-20T07:16:04;96612.44;;;20.04;100.00
20115;BME280;10218;42.874;25.320;2022-11-20T07:18:31;96623.69;;;19.68;100.00
20115;BME280;10218;42.874;25.320;2022-11-20T07:21:03;96636.41;;;19.28;100.00
20115;BME280;10218;42.874;25.320;2022-11-20T07:23:31;96649.44;;;19.31;100.00
20115;BME280;10218;42.874;25.320;2022-11-20T07:26:03;96619.50;;;19.77;100.00
20115;BME280;10218;42.874;25.320;2022-11-20T07:28:30;96616.69;;;19.04;100.00
20115;BME280;10218;42.874;25.320;2022-11-20T07:30:57;96601.28;;;19.04;100.00
20115;BME280;10218;42.874;25.320;2022-11-20T07:33:24;96622.56;;;19.41;100.00
20115;BME280;10218;42.874;25.320;2022-11-20T07:35:51;96613.88;;;19.39;100.00
20115;BME280;10218;42.874;25.320;2022-11-20T07:38:18;96621.12;;;20.06;100.00
20115;BME280;10218;42.874;25.320;2022-11-20T07:40:45;96611.47;;;20.61;100.00
20115;BME280;10218;42.874;25.320;2022-11-20T07:43:12;96613.34;;;21.15;100.00
20115;BME280;10218;42.874;25.320;2022-11-20T07:45:41;96614.78;;;21.45;100.00
20115;BME280;10218;42.874;25.320;2022-11-20T07:48:08;96620.66;;;22.71;92.22
20115;BME280;10218;42.874;25.320;2022-11-20T07:50:35;96621.56;;;23.33;64.81
20115;BME280;10218;42.874;25.320;2022-11-20T07:53:06;96645.66;;;22.68;61.96
20115;BME280;10218;42.874;25.320;2022-11-20T07:55:33;96647.09;;;23.69;55.37
20115;BME280;10218;42.874;25.320;2022-11-20T07:58:00;96655.81;;;23.66;54.89
20115;BME280;10218;42.874;25.320;2022-11-20T08:00:27;96671.03;;;24.60;52.00
20115;BME280;10218;42.874;25.320;2022-11-20T08:02:55;96664.34;;;23.95;51.90
20115;BME280;10218;42.874;25.320;2022-11-20T08:05:23;96671.56;;;24.72;50.84
20115;BME280;10218;42.874;25.320;2022-11-20T08:07:50;96685.75;;;24.69;49.17
20115;BME280;10218;42.874;25.320;2022-11-20T08:10:18;96698.69;;;23.81;50.37
20115;BME280;10218;42.874;25.320;2022-11-20T08:12:49;96691.22;;;24.59;48.42
20115;BME280;10218;42.874;25.320;2022-11-20T08:15:37;96691.09;;;23.98;51.07
20115;BME280;10218;42.874;25.320;2022-11-20T08:18:10;96686.88;;;23.60;51.37
20115;BME280;10218;42.874;25.320;2022-11-20T08:21:04;96688.91;;;22.96;53.25
20115;BME280;10218;42.874;25.320;2022-11-20T08:23:31;96690.34;;;25.60;46.09
20115;BME280;10218;42.874;25.320;2022-11-20T08:25:59;96690.28;;;24.08;48.71
20115;BME280;10218;42.874;25.320;2022-11-20T08:28:26;96688.88;;;22.59;54.14
20115;BME280;10218;42.874;25.320;2022-11-20T08:30:58;96687.91;;;21.68;57.33
20115;BME280;10218;42.874;25.320;2022-11-20T08:33:25;96682.34;;;20.47;61.28
20115;BME280;10218;42.874;25.320;2022-11-20T08:35:53;96672.81;;;20.17;65.74
20115;BME280;10218;42.874;25.320;2022-11-20T08:38:20;96688.28;;;19.88;72.48
20115;BME280;10218;42.874;25.320;2022-11-20T08:40:47;96677.87;;;19.96;69.23
20115;BME280;10218;42.874;25.320;2022-11-20T08:43:34;96676.50;;;18.67;81.00
20115;BME280;10218;42.874;25.320;2022-11-20T08:46:02;96677.50;;;18.43;85.72
20115;BME280;10218;42.874;25.320;2022-11-20T08:48:29;96682.00;;;19.07;81.51
20115;BME280;10218;42.874;25.320;2022-11-20T08:50:58;96661.09;;;19.54;74.96
20115;BME280;10218;42.874;25.320;2022-11-20T08:53:27;96673.00;;;19.82;72.81
20115;BME280;10218;42.874;25.320;2022-11-20T08:55:54;96662.87;;;21.06;64.23
20115;BME280;10218;42.874;25.320;2022-11-20T08:58:21;96672.56;;;21.79;59.20
20115;BME280;10218;42.874;25.320;2022-11-20T09:00:49;96668.88;;;24.92;49.36
20115;BME280;10218;42.874;25.320;2022-11-20T09:03:16;96674.75;;;22.03;54.77
20115;BME280;10218;42.874;25.320;2022-11-20T09:05:43;96670.91;;;22.90;53.86
20115;BME280;10218;42.874;25.320;2022-11-20T09:08:10;96666.38;;;20.84;58.47
20115;BME280;10218;42.874;25.320;2022-11-20T09:10:37;96659.44;;;18.67;75.45
20115;BME280;10218;42.874;25.320;2022-11-20T09:13:07;96657.69;;;19.36;74.58
20115;BME280;10218;42.874;25.320;2022-11-20T09:15:34;96655.50;;;18.51;81.18
20115;BME280;10218;42.874;25.320;2022-11-20T09:18:02;96657.09;;;18.59;83.95
20115;BME280;10218;42.874;25.320;2022-11-20T09:20:31;96657.69;;;16.93;97.62
20115;BME280;10218;42.874;25.320;2022-11-20T09:23:00;96652.28;;;17.30;100.00
20115;BME280;10218;42.874;25.320;2022-11-20T09:25:27;96641.72;;;15.99;100.00
20115;BME280;10218;42.874;25.320;2022-11-20T09:27:57;96630.47;;;14.88;100.00
20115;BME280;10218;42.874;25.320;2022-11-20T09:30:26;96636.91;;;17.12;100.00
20115;BME280;10218;42.874;25.320;2022-11-20T09:32:53;96640.53;;;18.25;100.00
20115;BME280;10218;42.874;25.320;2022-11-20T09:35:21;96638.09;;;17.34;97.51
20115;BME280;10218;42.874;25.320;2022-11-20T09:37:48;96626.41;;;20.80;68.81
20115;BME280;10218;42.874;25.320;2022-11-20T09:42:57;96629.16;;;21.89;61.62
20115;BME280;10218;42.874;25.320;2022-11-20T09:48:13;96621.16;;;22.68;55.29
20115;BME280;10218;42.874;25.320;2022-11-20T09:53:55;96606.34;;;25.50;47.88
20115;BME280;10218;42.874;25.320;2022-11-20T09:56:28;96606.72;;;23.09;52.76
20115;BME280;10218;42.874;25.320;2022-11-20T09:58:59;96614.84;;;25.48;48.74
20115;BME280;10218;42.874;25.320;2022-11-20T10:01:32;96604.75;;;21.94;54.75
20115;BME280;10218;42.874;25.320;2022-11-20T10:04:14;96585.75;;;20.85;58.47
20115;BME280;10218;42.874;25.320;2022-11-20T10:07:11;96577.09;;;20.66;62.98
20115;BME280;10218;42.874;25.320;2022-11-20T10:09:57;96577.56;;;21.94;62.37
20115;BME280;10218;42.874;25.320;2022-11-20T10:13:05;96567.25;;;24.29;51.83
20115;BME280;10218;42.874;25.320;2022-11-20T10:29:37;96567.75;;;23.71;54.69
20115;BME280;10218;42.874;25.320;2022-11-20T10:32:17;96565.34;;;21.74;58.01
20115;BME280;10218;42.874;25.320;2022-11-20T10:35:01;96563.63;;;21.15;63.74
20115;BME280;10218;42.874;25.320;2022-11-20T10:37:32;96549.28;;;20.59;70.57
20115;BME280;10218;42.874;25.320;2022-11-20T10:42:47;96552.25;;;18.19;93.60
20115;BME280;10218;42.874;25.320;2022-11-20T10:50:36;96569.31;;;18.55;95.06
20115;BME280;10218;42.874;25.320;2022-11-20T10:55:46;96555.72;;;17.73;100.00
20115;BME280;10218;42.874;25.320;2022-11-20T11:01:18;96561.69;;;22.96;56.85
20115;BME280;10218;42.874;25.320;2022-11-20T11:03:49;96553.81;;;23.72;55.73
20115;BME280;10218;42.874;25.320;2022-11-20T11:09:15;96530.69;;;24.41;50.67
20115;BME280;10218;42.874;25.320;2022-11-20T11:11:44;96544.88;;;23.10;54.51
20115;BME280;10218;42.874;25.320;2022-11-20T11:14:14;96546.56;;;20.98;60.79
20115;BME280;10218;42.874;25.320;2022-11-20T11:16:52;96543.31;;;22.72;58.19
20115;BME280;10218;42.874;25.320;2022-11-20T11:19:22;96541.28;;;24.88;50.97
20115;BME280;10218;42.874;25.320;2022-11-20T11:24:27;96538.59;;;24.12;50.56
20115;BME280;10218;42.874;25.320;2022-11-20T11:27:13;96518.16;;;22.12;57.43
20115;BME280;10218;42.874;25.320;2022-11-20T11:29:44;96524.31;;;19.29;80.48
20115;BME280;10218;42.874;25.320;2022-11-20T11:32:18;96529.91;;;19.10;85.79
20115;BME280;10218;42.874;25.320;2022-11-20T11:35:05;96527.28;;;18.75;94.65
20115;BME280;10218;42.874;25.320;2022-11-20T11:37:38;96540.59;;;18.19;94.66
20115;BME280;10218;42.874;25.320;2022-11-20T11:40:08;96538.47;;;17.86;100.00
20115;BME280;10218;42.874;25.320;2022-11-20T11:42:57;96546.00;;;17.72;100.00
20115;BME280;10218;42.874;25.320;2022-11-20T11:45:26;96541.06;;;17.81;100.00
20115;BME280;10218;42.874;25.320;2022-11-20T11:47:58;96552.16;;;17.31;100.00
20115;BME280;10218;42.874;25.320;2022-11-20T11:50:28;96539.44;;;18.26;100.00
20115;BME280;10218;42.874;25.320;2022-11-20T11:55:31;96543.81;;;17.03;100.00
20115;BME280;10218;42.874;25.320;2022-11-20T11:58:44;96535.22;;;17.24;100.00
20115;BME280;10218;42.874;25.320;2022-11-20T12:03:39;96555.41;;;18.51;100.00
20115;BME280;10218;42.874;25.320;2022-11-20T12:06:14;96559.50;;;19.29;85.54
20115;BME280;10218;42.874;25.320;2022-11-20T12:08:52;96581.38;;;17.82;100.00
20115;BME280;10218;42.874;25.320;2022-11-20T12:16:42;96603.69;;;16.14;100.00
20115;BME280;10218;42.874;25.320;2022-11-20T12:19:13;96620.03;;;15.50;100.00
20115;BME280;10218;42.874;25.320;2022-11-20T12:21:58;96620.78;;;15.32;100.00
20115;BME280;10218;42.874;25.320;2022-11-20T12:25:11;96619.56;;;15.28;100.00
20115;BME280;10218;42.874;25.320;2022-11-20T12:28:10;96623.09;;;15.22;100.00
20115;BME280;10218;42.874;25.320;2022-11-20T12:47:44;96624.78;;;14.26;100.00
20115;BME280;10218;42.874;25.320;2022-11-20T12:52:56;96635.09;;;13.83;100.00
20115;BME280;10218;42.874;25.320;2022-11-20T13:01:47;96640.91;;;13.86;100.00
20115;BME280;10218;42.874;25.320;2022-11-20T13:07:11;96630.97;;;13.80;100.00
20115;BME280;10218;42.874;25.320;2022-11-20T13:09:43;96643.50;;;13.47;100.00
20115;BME280;10218;42.874;25.320;2022-11-20T13:12:32;96628.09;;;13.88;100.00
20115;BME280;10218;42.874;25.320;2022-11-20T13:18:00;96618.78;;;14.04;100.00
20115;BME280;10218;42.874;25.320;2022-11-20T13:20:29;96655.19;;;13.19;100.00
20115;BME280;10218;42.874;25.320;2022-11-20T13:22:57;96631.78;;;13.74;100.00
20115;BME280;10218;42.874;25.320;2022-11-20T13:25:38;96633.00;;;13.58;100.00
20115;BME280;10218;42.874;25.320;2022-11-20T13:30:48;96650.53;;;13.48;100.00
20115;BME280;10218;42.874;25.320;2022-11-20T13:33:22;96636.31;;;13.67;100.00
20115;BME280;10218;42.874;25.320;2022-11-20T13:36:02;96617.97;;;13.90;100.00
20115;BME280;10218;42.874;25.320;2022-11-20T13:38:43;96621.84;;;13.61;100.00
20115;BME280;10218;42.874;25.320;2022-11-20T13:41:11;96636.28;;;13.41;100.00
20115;BME280;10218;42.874;25.320;2022-11-20T13:46:47;96648.34;;;13.91;100.00
20115;BME280;10218;42.874;25.320;2022-11-20T13:58:12;96642.03;;;13.38;100.00
20115;BME280;10218;42.874;25.320;2022-11-20T14:00:31;96649.50;;;13.49;100.00
20115;BME280;10218;42.874;25.320;2022-11-20T14:03:18;96656.09;;;13.53;100.00
20115;BME280;10218;42.874;25.320;2022-11-20T14:05:59;96664.97;;;12.99;100.00
20115;BME280;10218;42.874;25.320;2022-11-20T14:08:38;96684.66;;;12.78;100.00
20115;BME280;10218;42.874;25.320;2022-11-20T14:11:17;96693.66;;;12.64;100.00
20115;BME280;10218;42.874;25.320;2022-11-20T14:14:15;96685.03;;;13.10;100.00
20115;BME280;10218;42.874;25.320;2022-11-20T14:16:42;96692.84;;;13.46;100.00
20115;BME280;10218;42.874;25.320;2022-11-20T14:19:26;96702.31;;;13.35;100.00
20115;BME280;10218;42.874;25.320;2022-11-20T14:24:35;96727.84;;;13.24;100.00
20115;BME280;10218;42.874;25.320;2022-11-20T14:27:02;96762.25;;;12.59;100.00
20115;BME280;10218;42.874;25.320;2022-11-20T14:29:34;96784.16;;;12.97;100.00
20115;BME280;10218;42.874;25.320;2022-11-20T14:32:03;96769.41;;;12.79;100.00
20115;BME280;10218;42.874;25.320;2022-11-20T14:34:35;96750.38;;;12.19;100.00
20115;BME280;10218;42.874;25.320;2022-11-20T14:37:09;96765.97;;;12.36;100.00
20115;BME280;10218;42.874;25.320;2022-11-20T14:39:47;96785.06;;;12.55;100.00
20115;BME280;10218;42.874;25.320;2022-11-20T14:42:23;96804.75;;;12.40;100.00
20115;BME280;10218;42.874;25.320;2022-11-20T14:44:52;96810.34;;;12.46;100.00